sensor_id;sensor_type;location;lat;lon;timestamp;P1;durP1;ratioP1;P2;durP2;ratioP2
41689;SDS011;27372;42.658;23.256;2023-06-26T00:02:07;27.93;;;19.87;;
41689;SDS011;27372;42.658;23.256;2023-06-26T00:04:32;26.93;;;17.33;;
41689;SDS011;27372;42.658;23.256;2023-06-26T00:06:57;21.13;;;17.60;;
41689;SDS011;27372;42.658;23.256;2023-06-26T00:09:22;25.10;;;18.77;;
41689;SDS011;27372;42.658;23.256;2023-06-26T00:11:48;23.60;;;18.05;;
41689;SDS011;27372;42.658;23.256;2023-06-26T00:14:13;20.65;;;17.52;;
41689;SDS011;27372;42.658;23.256;2023-06-26T00:16:39;21.47;;;17.00;;
41689;SDS011;27372;42.658;23.256;2023-06-26T00:19:04;25.30;;;16.60;;
41689;SDS011;27372;42.658;23.256;2023-06-26T00:21:29;21.27;;;16.27;;
41689;SDS011;27372;42.658;23.256;2023-06-26T00:23:54;24.77;;;17.63;;
41689;SDS011;27372;42.658;23.256;2023-06-26T00:26:20;22.10;;;16.53;;
41689;SDS011;27372;42.658;23.256;2023-06-26T00:28:45;21.33;;;17.20;;
41689;SDS011;27372;42.658;23.256;2023-06-26T00:31:10;21.37;;;17.00;;
41689;SDS011;27372;42.658;23.256;2023-06-26T00:33:36;23.58;;;15.90;;
41689;SDS011;27372;42.658;23.256;2023-06-26T00:36:01;20.97;;;15.47;;
41689;SDS011;27372;42.658;23.256;2023-06-26T00:38:26;19.63;;;15.37;;
41689;SDS011;27372;42.658;23.256;2023-06-26T00:40:51;24.52;;;15.27;;
41689;SDS011;27372;42.658;23.256;2023-06-26T00:43:17;20.75;;;15.43;;
41689;SDS011;27372;42.658;23.256;2023-06-26T00:45:42;25.03;;;16.13;;
41689;SDS011;27372;42.658;23.256;2023-06-26T00:48:07;22.13;;;15.77;;
41689;SDS011;27372;42.658;23.256;2023-06-26T00:50:33;21.30;;;14.90;;
41689;SDS011;27372;42.658;23.256;2023-06-26T00:52:59;20.00;;;14.57;;
41689;SDS011;27372;42.658;23.256;2023-06-26T00:55:26;16.85;;;14.27;;
41689;SDS011;27372;42.658;23.256;2023-06-26T00:57:52;20.08;;;15.30;;
41689;SDS011;27372;42.658;23.256;2023-06-26T01:00:17;18.45;;;14.60;;
41689;SDS011;27372;42.658;23.256;2023-06-26T01:02:42;17.25;;;14.30;;
41689;SDS011;27372;42.658;23.256;2023-06-26T01:05:08;20.27;;;14.33;;
41689;SDS011;27372;42.658;23.256;2023-06-26T01:07:37;19.65;;;15.02;;
41689;SDS011;27372;42.658;23.256;2023-06-26T01:10:06;19.23;;;14.20;;
41689;SDS011;27372;42.658;23.256;2023-06-26T01:12:32;19.55;;;14.23;;
41689;SDS011;27372;42.658;23.256;2023-06-26T01:14:58;16.02;;;13.80;;
41689;SDS011;27372;42.658;23.256;2023-06-26T01:17:23;18.83;;;14.10;;
41689;SDS011;27372;42.658;23.256;2023-06-26T01:19:49;18.10;;;14.15;;
41689;SDS011;27372;42.658;23.256;2023-06-26T01:22:19;19.70;;;14.30;;
41689;SDS011;27372;42.658;23.256;2023-06-26T01:27:33;16.45;;;13.93;;
41689;SDS011;27372;42.658;23.256;2023-06-26T01:30:00;18.52;;;14.38;;
41689;SDS011;27372;42.658;23.256;2023-06-26T01:32:26;20.08;;;14.00;;
41689;SDS011;27372;42.658;23.256;2023-06-26T01:34:51;18.20;;;14.73;;
41689;SDS011;27372;42.658;23.256;2023-06-26T01:37:17;20.30;;;14.05;;
41689;SDS011;27372;42.658;23.256;2023-06-26T01:39:42;16.30;;;13.40;;
41689;SDS011;27372;42.658;23.256;2023-06-26T01:42:07;18.27;;;13.73;;
41689;SDS011;27372;42.658;23.256;2023-06-26T01:44:35;17.63;;;13.38;;
41689;SDS011;27372;42.658;23.256;2023-06-26T01:52:03;18.92;;;14.98;;
41689;SDS011;27372;42.658;23.256;2023-06-26T01:54:33;20.83;;;15.25;;
41689;SDS011;27372;42.658;23.256;2023-06-26T01:57:02;18.85;;;14.10;;
41689;SDS011;27372;42.658;23.256;2023-06-26T01:59:29;21.50;;;15.05;;
41689;SDS011;27372;42.658;23.256;2023-06-26T02:01:56;18.75;;;14.52;;
41689;SDS011;27372;42.658;23.256;2023-06-26T02:04:22;19.98;;;14.98;;
41689;SDS011;27372;42.658;23.256;2023-06-26T02:06:47;19.40;;;13.77;;
41689;SDS011;27372;42.658;23.256;2023-06-26T02:09:12;18.70;;;13.57;;
41689;SDS011;27372;42.658;23.256;2023-06-26T02:11:37;18.58;;;15.35;;
41689;SDS011;27372;42.658;23.256;2023-06-26T02:14:03;21.13;;;15.53;;
41689;SDS011;27372;42.658;23.256;2023-06-26T02:16:28;18.97;;;14.77;;
41689;SDS011;27372;42.658;23.256;2023-06-26T02:18:54;19.00;;;14.55;;
41689;SDS011;27372;42.658;23.256;2023-06-26T02:21:19;19.27;;;15.47;;
41689;SDS011;27372;42.658;23.256;2023-06-26T02:23:44;19.05;;;15.98;;
41689;SDS011;27372;42.658;23.256;2023-06-26T02:26:09;20.13;;;16.50;;
41689;SDS011;27372;42.658;23.256;2023-06-26T02:28:36;20.08;;;15.05;;
41689;SDS011;27372;42.658;23.256;2023-06-26T02:31:01;18.30;;;15.25;;
41689;SDS011;27372;42.658;23.256;2023-06-26T02:33:27;24.52;;;16.88;;
41689;SDS011;27372;42.658;23.256;2023-06-26T02:35:52;22.15;;;15.85;;
41689;SDS011;27372;42.658;23.256;2023-06-26T02:38:18;20.20;;;16.00;;
41689;SDS011;27372;42.658;23.256;2023-06-26T02:40:43;19.08;;;16.15;;
41689;SDS011;27372;42.658;23.256;2023-06-26T02:43:08;22.63;;;16.37;;
41689;SDS011;27372;42.658;23.256;2023-06-26T02:45:34;22.33;;;16.97;;
41689;SDS011;27372;42.658;23.256;2023-06-26T02:47:59;21.90;;;16.90;;
41689;SDS011;27372;42.658;23.256;2023-06-26T02:50:24;24.20;;;17.67;;
41689;SDS011;27372;42.658;23.256;2023-06-26T02:52:49;23.17;;;17.07;;
41689;SDS011;27372;42.658;23.256;2023-06-26T02:55:17;24.83;;;17.60;;
41689;SDS011;27372;42.658;23.256;2023-06-26T02:57:43;20.23;;;17.30;;
41689;SDS011;27372;42.658;23.256;2023-06-26T03:00:08;21.27;;;17.27;;
41689;SDS011;27372;42.658;23.256;2023-06-26T03:02:34;19.60;;;17.27;;
41689;SDS011;27372;42.658;23.256;2023-06-26T03:04:59;20.40;;;16.93;;
41689;SDS011;27372;42.658;23.256;2023-06-26T03:07:24;23.30;;;17.97;;
41689;SDS011;27372;42.658;23.256;2023-06-26T03:09:49;19.33;;;16.70;;
41689;SDS011;27372;42.658;23.256;2023-06-26T03:12:15;24.50;;;18.58;;
41689;SDS011;27372;42.658;23.256;2023-06-26T03:14:42;20.53;;;18.27;;
41689;SDS011;27372;42.658;23.256;2023-06-26T03:17:07;24.58;;;18.67;;
41689;SDS011;27372;42.658;23.256;2023-06-26T03:19:32;23.37;;;18.50;;
41689;SDS011;27372;42.658;23.256;2023-06-26T03:21:57;24.50;;;18.17;;
41689;SDS011;27372;42.658;23.256;2023-06-26T03:24:23;27.23;;;18.10;;
41689;SDS011;27372;42.658;23.256;2023-06-26T03:26:48;22.90;;;18.43;;
41689;SDS011;27372;42.658;23.256;2023-06-26T03:29:13;23.97;;;19.27;;
41689;SDS011;27372;42.658;23.256;2023-06-26T03:31:38;23.77;;;18.43;;
41689;SDS011;27372;42.658;23.256;2023-06-26T03:34:04;23.88;;;19.88;;
41689;SDS011;27372;42.658;23.256;2023-06-26T03:36:30;21.42;;;17.77;;
41689;SDS011;27372;42.658;23.256;2023-06-26T03:38:55;21.50;;;18.10;;
41689;SDS011;27372;42.658;23.256;2023-06-26T03:41:22;23.10;;;17.98;;
41689;SDS011;27372;42.658;23.256;2023-06-26T03:43:47;22.77;;;18.65;;
41689;SDS011;27372;42.658;23.256;2023-06-26T03:46:13;21.10;;;18.73;;
41689;SDS011;27372;42.658;23.256;2023-06-26T03:48:38;22.90;;;17.90;;
41689;SDS011;27372;42.658;23.256;2023-06-26T03:51:03;25.80;;;17.65;;
41689;SDS011;27372;42.658;23.256;2023-06-26T03:53:29;23.20;;;18.57;;
41689;SDS011;27372;42.658;23.256;2023-06-26T03:55:54;21.43;;;18.10;;
41689;SDS011;27372;42.658;23.256;2023-06-26T03:58:19;21.27;;;17.53;;
41689;SDS011;27372;42.658;23.256;2023-06-26T04:00:44;19.07;;;17.00;;
41689;SDS011;27372;42.658;23.256;2023-06-26T04:03:10;21.03;;;17.83;;
41689;SDS011;27372;42.658;23.256;2023-06-26T04:05:36;24.08;;;17.27;;
41689;SDS011;27372;42.658;23.256;2023-06-26T04:08:01;20.93;;;17.20;;
41689;SDS011;27372;42.658;23.256;2023-06-26T04:10:26;23.83;;;17.03;;
41689;SDS011;27372;42.658;23.256;2023-06-26T04:12:52;19.60;;;16.98;;
41689;SDS011;27372;42.658;23.256;2023-06-26T04:15:18;20.50;;;17.30;;
41689;SDS011;27372;42.658;23.256;2023-06-26T04:17:43;20.27;;;16.73;;
41689;SDS011;27372;42.658;23.256;2023-06-26T04:20:08;19.67;;;17.27;;
41689;SDS011;27372;42.658;23.256;2023-06-26T04:22:34;20.08;;;17.38;;
41689;SDS011;27372;42.658;23.256;2023-06-26T04:25:01;17.92;;;16.02;;
41689;SDS011;27372;42.658;23.256;2023-06-26T04:27:27;22.55;;;17.40;;
41689;SDS011;27372;42.658;23.256;2023-06-26T04:29:53;20.20;;;17.17;;
41689;SDS011;27372;42.658;23.256;2023-06-26T04:32:18;20.63;;;17.57;;
41689;SDS011;27372;42.658;23.256;2023-06-26T04:34:43;18.77;;;16.27;;
41689;SDS011;27372;42.658;23.256;2023-06-26T04:37:09;18.63;;;16.20;;
41689;SDS011;27372;42.658;23.256;2023-06-26T04:39:35;21.25;;;17.65;;
41689;SDS011;27372;42.658;23.256;2023-06-26T04:42:02;20.10;;;16.70;;
41689;SDS011;27372;42.658;23.256;2023-06-26T04:44:27;19.00;;;15.98;;
41689;SDS011;27372;42.658;23.256;2023-06-26T04:46:52;18.13;;;15.93;;
41689;SDS011;27372;42.658;23.256;2023-06-26T04:49:18;19.97;;;16.40;;
41689;SDS011;27372;42.658;23.256;2023-06-26T04:51:43;17.98;;;16.05;;
41689;SDS011;27372;42.658;23.256;2023-06-26T04:54:09;20.77;;;16.70;;
41689;SDS011;27372;42.658;23.256;2023-06-26T04:56:35;20.42;;;16.83;;
41689;SDS011;27372;42.658;23.256;2023-06-26T04:59:00;18.48;;;16.15;;
41689;SDS011;27372;42.658;23.256;2023-06-26T05:01:28;19.48;;;17.02;;
41689;SDS011;27372;42.658;23.256;2023-06-26T05:03:55;20.42;;;16.90;;
41689;SDS011;27372;42.658;23.256;2023-06-26T05:06:21;20.52;;;16.67;;
41689;SDS011;27372;42.658;23.256;2023-06-26T05:08:46;20.47;;;16.53;;
41689;SDS011;27372;42.658;23.256;2023-06-26T05:11:11;18.57;;;16.47;;
41689;SDS011;27372;42.658;23.256;2023-06-26T05:13:36;21.65;;;16.42;;
41689;SDS011;27372;42.658;23.256;2023-06-26T05:16:02;18.23;;;15.80;;
41689;SDS011;27372;42.658;23.256;2023-06-26T05:18:27;22.53;;;16.30;;
41689;SDS011;27372;42.658;23.256;2023-06-26T05:20:52;17.90;;;14.73;;
41689;SDS011;27372;42.658;23.256;2023-06-26T05:23:18;16.60;;;14.52;;
41689;SDS011;27372;42.658;23.256;2023-06-26T05:25:44;17.42;;;14.50;;
41689;SDS011;27372;42.658;23.256;2023-06-26T05:28:13;17.30;;;15.32;;
41689;SDS011;27372;42.658;23.256;2023-06-26T05:30:40;18.90;;;15.48;;
41689;SDS011;27372;42.658;23.256;2023-06-26T05:33:05;19.83;;;15.40;;
41689;SDS011;27372;42.658;23.256;2023-06-26T05:35:31;18.88;;;16.58;;
41689;SDS011;27372;42.658;23.256;2023-06-26T05:37:57;18.50;;;15.50;;
41689;SDS011;27372;42.658;23.256;2023-06-26T05:40:22;18.83;;;15.55;;
41689;SDS011;27372;42.658;23.256;2023-06-26T05:42:48;19.13;;;16.23;;
41689;SDS011;27372;42.658;23.256;2023-06-26T05:45:13;22.83;;;16.55;;
41689;SDS011;27372;42.658;23.256;2023-06-26T05:47:42;17.70;;;15.80;;
41689;SDS011;27372;42.658;23.256;2023-06-26T05:50:08;20.10;;;15.85;;
41689;SDS011;27372;42.658;23.256;2023-06-26T05:52:34;18.50;;;15.95;;
41689;SDS011;27372;42.658;23.256;2023-06-26T05:55:00;19.88;;;16.38;;
41689;SDS011;27372;42.658;23.256;2023-06-26T05:57:29;17.98;;;15.30;;
41689;SDS011;27372;42.658;23.256;2023-06-26T05:59:54;18.80;;;15.50;;
41689;SDS011;27372;42.658;23.256;2023-06-26T06:02:20;17.58;;;15.07;;
41689;SDS011;27372;42.658;23.256;2023-06-26T06:04:45;20.70;;;15.60;;
41689;SDS011;27372;42.658;23.256;2023-06-26T06:07:11;16.52;;;14.55;;
41689;SDS011;27372;42.658;23.256;2023-06-26T06:09:36;16.38;;;14.52;;
41689;SDS011;27372;42.658;23.256;2023-06-26T06:12:03;18.08;;;14.73;;
41689;SDS011;27372;42.658;23.256;2023-06-26T06:14:29;16.10;;;14.10;;
41689;SDS011;27372;42.658;23.256;2023-06-26T06:16:55;20.00;;;15.10;;
41689;SDS011;27372;42.658;23.256;2023-06-26T06:19:20;18.67;;;14.30;;
41689;SDS011;27372;42.658;23.256;2023-06-26T06:21:45;15.73;;;13.97;;
41689;SDS011;27372;42.658;23.256;2023-06-26T06:24:10;17.30;;;13.73;;
41689;SDS011;27372;42.658;23.256;2023-06-26T06:26:36;15.13;;;13.20;;
41689;SDS011;27372;42.658;23.256;2023-06-26T06:29:01;14.87;;;13.37;;
41689;SDS011;27372;42.658;23.256;2023-06-26T06:31:26;18.00;;;13.77;;
41689;SDS011;27372;42.658;23.256;2023-06-26T06:33:55;16.63;;;13.38;;
41689;SDS011;27372;42.658;23.256;2023-06-26T06:36:20;14.17;;;12.07;;
41689;SDS011;27372;42.658;23.256;2023-06-26T06:38:45;14.20;;;12.17;;
41689;SDS011;27372;42.658;23.256;2023-06-26T06:41:11;14.00;;;12.43;;
41689;SDS011;27372;42.658;23.256;2023-06-26T06:43:37;13.32;;;11.55;;
41689;SDS011;27372;42.658;23.256;2023-06-26T06:46:03;13.35;;;11.32;;
41689;SDS011;27372;42.658;23.256;2023-06-26T06:48:31;14.45;;;10.82;;
41689;SDS011;27372;42.658;23.256;2023-06-26T06:50:57;14.25;;;11.88;;
41689;SDS011;27372;42.658;23.256;2023-06-26T06:53:22;14.50;;;10.30;;
41689;SDS011;27372;42.658;23.256;2023-06-26T06:55:48;11.70;;;10.52;;
41689;SDS011;27372;42.658;23.256;2023-06-26T06:58:13;15.57;;;10.88;;
41689;SDS011;27372;42.658;23.256;2023-06-26T07:00:38;12.90;;;10.37;;
41689;SDS011;27372;42.658;23.256;2023-06-26T07:03:03;12.27;;;10.50;;
41689;SDS011;27372;42.658;23.256;2023-06-26T07:05:29;12.47;;;9.73;;
41689;SDS011;27372;42.658;23.256;2023-06-26T07:07:55;10.98;;;8.80;;
41689;SDS011;27372;42.658;23.256;2023-06-26T07:10:22;10.88;;;9.40;;
41689;SDS011;27372;42.658;23.256;2023-06-26T07:12:47;11.88;;;9.50;;
41689;SDS011;27372;42.658;23.256;2023-06-26T07:15:13;13.70;;;9.60;;
41689;SDS011;27372;42.658;23.256;2023-06-26T07:17:38;14.10;;;9.30;;
41689;SDS011;27372;42.658;23.256;2023-06-26T07:20:04;9.07;;;8.18;;
41689;SDS011;27372;42.658;23.256;2023-06-26T07:22:33;11.30;;;8.40;;
41689;SDS011;27372;42.658;23.256;2023-06-26T07:24:58;11.38;;;8.43;;
41689;SDS011;27372;42.658;23.256;2023-06-26T07:27:52;9.88;;;7.75;;
41689;SDS011;27372;42.658;23.256;2023-06-26T07:30:17;9.23;;;7.30;;
41689;SDS011;27372;42.658;23.256;2023-06-26T07:32:56;9.05;;;7.85;;
41689;SDS011;27372;42.658;23.256;2023-06-26T07:35:23;11.60;;;8.45;;
41689;SDS011;27372;42.658;23.256;2023-06-26T07:37:52;12.57;;;8.10;;
41689;SDS011;27372;42.658;23.256;2023-06-26T07:40:17;10.60;;;9.50;;
41689;SDS011;27372;42.658;23.256;2023-06-26T07:42:42;10.17;;;8.53;;
41689;SDS011;27372;42.658;23.256;2023-06-26T07:45:09;9.07;;;8.13;;
41689;SDS011;27372;42.658;23.256;2023-06-26T07:47:37;8.57;;;7.22;;
41689;SDS011;27372;42.658;23.256;2023-06-26T07:50:03;9.50;;;7.60;;
41689;SDS011;27372;42.658;23.256;2023-06-26T07:52:28;8.95;;;7.18;;
41689;SDS011;27372;42.658;23.256;2023-06-26T07:54:55;8.18;;;6.97;;
41689;SDS011;27372;42.658;23.256;2023-06-26T07:57:21;9.50;;;7.10;;
41689;SDS011;27372;42.658;23.256;2023-06-26T07:59:51;10.77;;;7.35;;
41689;SDS011;27372;42.658;23.256;2023-06-26T08:02:42;9.50;;;6.72;;
41689;SDS011;27372;42.658;23.256;2023-06-26T08:05:08;8.43;;;6.17;;
41689;SDS011;27372;42.658;23.256;2023-06-26T08:07:34;8.20;;;6.93;;
41689;SDS011;27372;42.658;23.256;2023-06-26T08:10:03;10.27;;;7.10;;
41689;SDS011;27372;42.658;23.256;2023-06-26T08:12:28;9.63;;;7.00;;
41689;SDS011;27372;42.658;23.256;2023-06-26T08:14:54;9.80;;;7.07;;
41689;SDS011;27372;42.658;23.256;2023-06-26T08:17:19;10.43;;;7.00;;
41689;SDS011;27372;42.658;23.256;2023-06-26T08:19:44;9.40;;;7.40;;
41689;SDS011;27372;42.658;23.256;2023-06-26T08:22:09;8.73;;;6.67;;
41689;SDS011;27372;42.658;23.256;2023-06-26T08:24:35;9.33;;;6.90;;
41689;SDS011;27372;42.658;23.256;2023-06-26T08:27:01;7.60;;;5.97;;
41689;SDS011;27372;42.658;23.256;2023-06-26T08:29:28;8.20;;;5.85;;
41689;SDS011;27372;42.658;23.256;2023-06-26T08:31:54;8.02;;;5.68;;
41689;SDS011;27372;42.658;23.256;2023-06-26T08:34:19;8.47;;;6.37;;
41689;SDS011;27372;42.658;23.256;2023-06-26T08:36:44;7.30;;;5.57;;
41689;SDS011;27372;42.658;23.256;2023-06-26T08:39:10;9.40;;;6.13;;
41689;SDS011;27372;42.658;23.256;2023-06-26T08:41:35;9.73;;;5.47;;
41689;SDS011;27372;42.658;23.256;2023-06-26T08:44:01;7.03;;;5.20;;
41689;SDS011;27372;42.658;23.256;2023-06-26T08:46:27;6.63;;;5.40;;
41689;SDS011;27372;42.658;23.256;2023-06-26T08:48:56;5.40;;;4.90;;
41689;SDS011;27372;42.658;23.256;2023-06-26T08:51:23;9.00;;;4.85;;
41689;SDS011;27372;42.658;23.256;2023-06-26T08:53:52;6.20;;;5.28;;
41689;SDS011;27372;42.658;23.256;2023-06-26T08:56:20;12.93;;;5.50;;
41689;SDS011;27372;42.658;23.256;2023-06-26T08:58:47;8.20;;;5.47;;
41689;SDS011;27372;42.658;23.256;2023-06-26T09:01:12;6.93;;;4.75;;
41689;SDS011;27372;42.658;23.256;2023-06-26T09:03:38;5.80;;;4.78;;
41689;SDS011;27372;42.658;23.256;2023-06-26T09:06:03;7.23;;;5.13;;
41689;SDS011;27372;42.658;23.256;2023-06-26T09:08:28;6.50;;;4.77;;
41689;SDS011;27372;42.658;23.256;2023-06-26T09:10:54;7.28;;;5.18;;
41689;SDS011;27372;42.658;23.256;2023-06-26T09:13:19;5.63;;;5.00;;
41689;SDS011;27372;42.658;23.256;2023-06-26T09:15:45;6.47;;;4.70;;
41689;SDS011;27372;42.658;23.256;2023-06-26T09:18:10;4.93;;;4.43;;
41689;SDS011;27372;42.658;23.256;2023-06-26T09:20:36;5.75;;;4.28;;
41689;SDS011;27372;42.658;23.256;2023-06-26T09:23:01;5.60;;;4.20;;
41689;SDS011;27372;42.658;23.256;2023-06-26T09:25:27;6.80;;;4.80;;
41689;SDS011;27372;42.658;23.256;2023-06-26T09:27:53;6.60;;;4.50;;
41689;SDS011;27372;42.658;23.256;2023-06-26T09:30:18;8.17;;;4.90;;
41689;SDS011;27372;42.658;23.256;2023-06-26T09:32:44;7.03;;;5.55;;
41689;SDS011;27372;42.658;23.256;2023-06-26T09:35:09;5.80;;;5.22;;
41689;SDS011;27372;42.658;23.256;2023-06-26T09:37:35;6.93;;;5.43;;
41689;SDS011;27372;42.658;23.256;2023-06-26T09:40:00;12.13;;;5.25;;
41689;SDS011;27372;42.658;23.256;2023-06-26T09:42:26;6.90;;;5.17;;
41689;SDS011;27372;42.658;23.256;2023-06-26T09:44:51;5.78;;;4.80;;
41689;SDS011;27372;42.658;23.256;2023-06-26T09:47:18;7.17;;;4.40;;
41689;SDS011;27372;42.658;23.256;2023-06-26T09:49:43;4.80;;;4.30;;
41689;SDS011;27372;42.658;23.256;2023-06-26T09:52:09;5.20;;;4.70;;
41689;SDS011;27372;42.658;23.256;2023-06-26T09:54:35;9.82;;;4.97;;
41689;SDS011;27372;42.658;23.256;2023-06-26T09:57:11;5.72;;;4.68;;
41689;SDS011;27372;42.658;23.256;2023-06-26T09:59:36;5.10;;;4.60;;
41689;SDS011;27372;42.658;23.256;2023-06-26T10:02:02;5.78;;;4.80;;
41689;SDS011;27372;42.658;23.256;2023-06-26T10:04:27;5.78;;;4.88;;
41689;SDS011;27372;42.658;23.256;2023-06-26T10:06:56;9.07;;;4.83;;
41689;SDS011;27372;42.658;23.256;2023-06-26T10:09:22;7.85;;;4.80;;
41689;SDS011;27372;42.658;23.256;2023-06-26T10:14:23;4.90;;;4.40;;
41689;SDS011;27372;42.658;23.256;2023-06-26T10:16:51;4.80;;;4.00;;
41689;SDS011;27372;42.658;23.256;2023-06-26T10:19:16;6.85;;;4.43;;
41689;SDS011;27372;42.658;23.256;2023-06-26T10:21:46;5.95;;;4.10;;
41689;SDS011;27372;42.658;23.256;2023-06-26T10:24:11;4.55;;;4.00;;
41689;SDS011;27372;42.658;23.256;2023-06-26T10:26:40;5.35;;;4.63;;
41689;SDS011;27372;42.658;23.256;2023-06-26T10:29:07;4.82;;;4.32;;
41689;SDS011;27372;42.658;23.256;2023-06-26T10:31:32;6.57;;;4.55;;
41689;SDS011;27372;42.658;23.256;2023-06-26T10:33:59;7.57;;;4.43;;
41689;SDS011;27372;42.658;23.256;2023-06-26T10:36:29;6.25;;;4.30;;
41689;SDS011;27372;42.658;23.256;2023-06-26T10:38:55;5.90;;;4.90;;
41689;SDS011;27372;42.658;23.256;2023-06-26T10:41:21;5.70;;;4.65;;
41689;SDS011;27372;42.658;23.256;2023-06-26T10:43:51;7.28;;;4.90;;
41689;SDS011;27372;42.658;23.256;2023-06-26T10:46:17;5.57;;;4.50;;
41689;SDS011;27372;42.658;23.256;2023-06-26T10:48:56;7.55;;;4.60;;
41689;SDS011;27372;42.658;23.256;2023-06-26T10:51:22;7.35;;;4.68;;
41689;SDS011;27372;42.658;23.256;2023-06-26T10:53:56;5.30;;;4.53;;
41689;SDS011;27372;42.658;23.256;2023-06-26T10:56:43;6.43;;;4.70;;
41689;SDS011;27372;42.658;23.256;2023-06-26T10:59:12;5.78;;;4.90;;
41689;SDS011;27372;42.658;23.256;2023-06-26T11:01:41;6.07;;;4.93;;
41689;SDS011;27372;42.658;23.256;2023-06-26T11:04:10;6.10;;;5.25;;
41689;SDS011;27372;42.658;23.256;2023-06-26T11:06:36;6.78;;;5.22;;
41689;SDS011;27372;42.658;23.256;2023-06-26T11:14:12;7.30;;;5.10;;
41689;SDS011;27372;42.658;23.256;2023-06-26T11:16:38;6.13;;;5.40;;
41689;SDS011;27372;42.658;23.256;2023-06-26T11:19:03;8.40;;;5.60;;
41689;SDS011;27372;42.658;23.256;2023-06-26T11:21:29;6.03;;;5.40;;
41689;SDS011;27372;42.658;23.256;2023-06-26T11:23:54;8.00;;;5.82;;
41689;SDS011;27372;42.658;23.256;2023-06-26T11:31:30;6.33;;;5.43;;
41689;SDS011;27372;42.658;23.256;2023-06-26T11:33:56;7.95;;;5.20;;
41689;SDS011;27372;42.658;23.256;2023-06-26T11:36:25;7.25;;;4.82;;
41689;SDS011;27372;42.658;23.256;2023-06-26T11:38:56;5.32;;;4.82;;
41689;SDS011;27372;42.658;23.256;2023-06-26T11:41:23;7.45;;;5.32;;
41689;SDS011;27372;42.658;23.256;2023-06-26T11:43:48;7.88;;;5.60;;
41689;SDS011;27372;42.658;23.256;2023-06-26T11:46:15;10.05;;;5.18;;
41689;SDS011;27372;42.658;23.256;2023-06-26T11:48:45;8.82;;;5.30;;
41689;SDS011;27372;42.658;23.256;2023-06-26T11:51:13;8.10;;;4.97;;
41689;SDS011;27372;42.658;23.256;2023-06-26T11:53:53;8.20;;;5.20;;
41689;SDS011;27372;42.658;23.256;2023-06-26T11:56:28;5.50;;;4.72;;
41689;SDS011;27372;42.658;23.256;2023-06-26T11:59:03;6.50;;;5.22;;
41689;SDS011;27372;42.658;23.256;2023-06-26T12:01:41;6.80;;;5.30;;
41689;SDS011;27372;42.658;23.256;2023-06-26T12:04:23;7.05;;;5.55;;
41689;SDS011;27372;42.658;23.256;2023-06-26T12:09:48;6.03;;;5.18;;
41689;SDS011;27372;42.658;23.256;2023-06-26T12:15:06;7.35;;;5.22;;
41689;SDS011;27372;42.658;23.256;2023-06-26T12:17:34;5.80;;;4.88;;
41689;SDS011;27372;42.658;23.256;2023-06-26T12:20:03;5.40;;;4.90;;
41689;SDS011;27372;42.658;23.256;2023-06-26T12:24:56;6.18;;;4.68;;
41689;SDS011;27372;42.658;23.256;2023-06-26T12:27:22;7.03;;;4.55;;
41689;SDS011;27372;42.658;23.256;2023-06-26T12:29:51;5.40;;;4.30;;
41689;SDS011;27372;42.658;23.256;2023-06-26T12:32:18;5.45;;;4.45;;
41689;SDS011;27372;42.658;23.256;2023-06-26T12:34:46;5.43;;;4.50;;
41689;SDS011;27372;42.658;23.256;2023-06-26T12:37:12;5.60;;;4.88;;
41689;SDS011;27372;42.658;23.256;2023-06-26T12:39:51;6.93;;;5.07;;
41689;SDS011;27372;42.658;23.256;2023-06-26T12:42:18;7.22;;;4.95;;
41689;SDS011;27372;42.658;23.256;2023-06-26T12:44:43;6.85;;;5.20;;
41689;SDS011;27372;42.658;23.256;2023-06-26T12:47:08;6.47;;;4.95;;
41689;SDS011;27372;42.658;23.256;2023-06-26T12:49:35;6.88;;;5.22;;
41689;SDS011;27372;42.658;23.256;2023-06-26T12:52:02;6.35;;;4.63;;
41689;SDS011;27372;42.658;23.256;2023-06-26T12:54:27;10.48;;;5.10;;
41689;SDS011;27372;42.658;23.256;2023-06-26T12:56:53;5.30;;;4.45;;
41689;SDS011;27372;42.658;23.256;2023-06-26T12:59:18;6.27;;;4.60;;
41689;SDS011;27372;42.658;23.256;2023-06-26T13:01:44;5.50;;;4.88;;
41689;SDS011;27372;42.658;23.256;2023-06-26T13:04:09;8.38;;;5.00;;
41689;SDS011;27372;42.658;23.256;2023-06-26T13:06:35;5.53;;;4.73;;
41689;SDS011;27372;42.658;23.256;2023-06-26T13:09:01;5.47;;;4.63;;
41689;SDS011;27372;42.658;23.256;2023-06-26T13:11:30;8.80;;;5.18;;
41689;SDS011;27372;42.658;23.256;2023-06-26T13:13:55;6.22;;;4.95;;
41689;SDS011;27372;42.658;23.256;2023-06-26T13:16:20;6.38;;;5.30;;
41689;SDS011;27372;42.658;23.256;2023-06-26T13:18:46;6.73;;;5.20;;
41689;SDS011;27372;42.658;23.256;2023-06-26T13:21:12;7.35;;;5.18;;
41689;SDS011;27372;42.658;23.256;2023-06-26T13:23:37;6.53;;;5.07;;
41689;SDS011;27372;42.658;23.256;2023-06-26T13:26:02;5.30;;;4.80;;
41689;SDS011;27372;42.658;23.256;2023-06-26T13:28:28;5.18;;;4.68;;
41689;SDS011;27372;42.658;23.256;2023-06-26T13:30:53;5.67;;;4.63;;
41689;SDS011;27372;42.658;23.256;2023-06-26T13:33:18;6.17;;;4.70;;
41689;SDS011;27372;42.658;23.256;2023-06-26T13:35:43;5.63;;;4.70;;
41689;SDS011;27372;42.658;23.256;2023-06-26T13:38:09;6.27;;;4.47;;
41689;SDS011;27372;42.658;23.256;2023-06-26T13:40:39;9.68;;;5.03;;
41689;SDS011;27372;42.658;23.256;2023-06-26T13:43:15;8.18;;;4.88;;
41689;SDS011;27372;42.658;23.256;2023-06-26T13:48:39;8.68;;;4.88;;
41689;SDS011;27372;42.658;23.256;2023-06-26T13:51:09;5.45;;;4.60;;
41689;SDS011;27372;42.658;23.256;2023-06-26T13:53:35;6.72;;;4.85;;
41689;SDS011;27372;42.658;23.256;2023-06-26T13:56:01;7.00;;;5.00;;
41689;SDS011;27372;42.658;23.256;2023-06-26T13:58:27;7.05;;;5.22;;
41689;SDS011;27372;42.658;23.256;2023-06-26T14:00:55;5.93;;;4.80;;
41689;SDS011;27372;42.658;23.256;2023-06-26T14:03:20;9.07;;;4.97;;
41689;SDS011;27372;42.658;23.256;2023-06-26T14:05:47;8.70;;;5.07;;
41689;SDS011;27372;42.658;23.256;2023-06-26T14:08:14;10.13;;;5.47;;
41689;SDS011;27372;42.658;23.256;2023-06-26T14:10:39;14.30;;;5.20;;
41689;SDS011;27372;42.658;23.256;2023-06-26T14:13:05;6.43;;;5.15;;
41689;SDS011;27372;42.658;23.256;2023-06-26T14:15:32;13.55;;;5.65;;
41689;SDS011;27372;42.658;23.256;2023-06-26T14:17:58;19.35;;;5.75;;
41689;SDS011;27372;42.658;23.256;2023-06-26T14:20:24;7.53;;;5.00;;
41689;SDS011;27372;42.658;23.256;2023-06-26T14:22:52;10.85;;;4.93;;
41689;SDS011;27372;42.658;23.256;2023-06-26T14:25:22;9.52;;;4.93;;
41689;SDS011;27372;42.658;23.256;2023-06-26T14:27:47;6.97;;;4.80;;
41689;SDS011;27372;42.658;23.256;2023-06-26T14:30:12;5.60;;;4.63;;
41689;SDS011;27372;42.658;23.256;2023-06-26T14:32:38;6.30;;;4.77;;
41689;SDS011;27372;42.658;23.256;2023-06-26T14:35:03;5.63;;;4.97;;
41689;SDS011;27372;42.658;23.256;2023-06-26T14:37:30;7.50;;;5.22;;
41689;SDS011;27372;42.658;23.256;2023-06-26T14:39:56;7.70;;;5.28;;
41689;SDS011;27372;42.658;23.256;2023-06-26T14:42:22;6.60;;;4.93;;
41689;SDS011;27372;42.658;23.256;2023-06-26T14:44:47;6.20;;;5.10;;
41689;SDS011;27372;42.658;23.256;2023-06-26T14:47:15;6.10;;;4.60;;
41689;SDS011;27372;42.658;23.256;2023-06-26T14:49:41;6.28;;;4.80;;